Time;durP1;ratioP1;P1;durP2;ratioP2;P2;SDS_P1;SDS_P2;PMS_P1;PMS_P2;Temp;Humidity;BMP_temperature;BMP_pressure;BME280_temperature;BME280_humidity;BME280_pressure;Samples;Min_cycle;Max_cycle;Signal;HPM_P1;HPM_P2
2020/12/26 00:00:27;;;;;;;12.70;8.73;;;4.10;94.60;;;;;;5038468;28;20451;-81
2020/12/26 00:02:53;;;;;;;13.13;8.90;;;4.10;94.60;;;;;;5038688;28;20446;-81
2020/12/26 00:05:19;;;;;;;9.57;8.30;;;4.10;94.50;;;;;;5038250;28;20474;-81
2020/12/26 00:07:45;;;;;;;11.60;8.07;;;4.20;94.50;;;;;;5038187;28;20450;-81
2020/12/26 00:10:12;;;;;;;10.50;8.33;;;4.20;94.40;;;;;;5038021;28;20458;-81
2020/12/26 00:12:38;;;;;;;14.13;8.43;;;4.30;94.40;;;;;;5037646;28;20431;-81
2020/12/26 00:15:05;;;;;;;15.03;9.47;;;4.30;94.20;;;;;;5037390;28;20485;-81
2020/12/26 00:17:31;;;;;;;10.60;8.40;;;4.30;94.10;;;;;;5037493;28;20486;-81
2020/12/26 00:19:58;;;;;;;10.57;8.20;;;4.40;94.10;;;;;;5037938;28;20442;-81
2020/12/26 00:22:24;;;;;;;13.03;8.20;;;4.30;94.00;;;;;;5037884;28;20454;-81
2020/12/26 00:24:50;;;;;;;14.60;8.40;;;4.40;93.90;;;;;;5037658;28;20820;-81
2020/12/26 00:27:16;;;;;;;16.80;9.03;;;4.40;94.00;;;;;;5037810;28;20434;-81
2020/12/26 00:29:42;;;;;;;11.30;9.23;;;4.30;94.00;;;;;;5037496;28;20481;-81
2020/12/26 00:32:10;;;;;;;16.10;8.93;;;4.40;94.10;;;;;;5037692;28;20454;-81
2020/12/26 00:34:39;;;;;;;14.20;9.03;;;4.30;94.00;;;;;;5037493;28;20496;-81
2020/12/26 00:37:05;;;;;;;12.27;9.20;;;4.40;94.10;;;;;;5036831;28;20509;-81
2020/12/26 00:39:31;;;;;;;11.40;8.70;;;4.40;94.10;;;;;;5036741;28;20462;-81
2020/12/26 00:41:57;;;;;;;12.37;9.33;;;4.40;94.00;;;;;;5037087;28;20431;-82
2020/12/26 00:44:24;;;;;;;11.70;9.23;;;4.40;93.90;;;;;;5037033;28;20473;-81
2020/12/26 00:46:50;;;;;;;11.70;9.50;;;4.30;93.80;;;;;;5036874;28;20466;-81
2020/12/26 00:49:17;;;;;;;11.17;9.40;;;4.30;93.90;;;;;;5036795;28;20455;-81
2020/12/26 00:51:47;;;;;;;12.53;9.77;;;4.40;94.00;;;;;;5036690;28;20431;-81
2020/12/26 00:54:14;;;;;;;16.30;10.10;;;4.40;94.00;;;;;;5036975;28;20439;-81
2020/12/26 00:56:40;;;;;;;13.87;10.83;;;4.30;93.90;;;;;;5037082;28;20498;-81
2020/12/26 00:59:06;;;;;;;16.60;11.30;;;4.30;94.10;;;;;;5037555;28;20450;-81
2020/12/26 01:01:32;;;;;;;21.80;11.30;;;4.30;94.10;;;;;;5036984;28;20446;-81
2020/12/26 01:03:58;;;;;;;21.40;11.47;;;4.30;94.00;;;;;;5037389;28;20869;-81
2020/12/26 01:06:26;;;;;;;19.63;11.97;;;4.30;94.00;;;;;;5036718;28;20501;-81
2020/12/26 01:08:52;;;;;;;14.43;11.00;;;4.30;94.00;;;;;;5036942;28;20453;-82
2020/12/26 01:11:18;;;;;;;18.83;12.10;;;4.30;93.90;;;;;;5036767;28;20463;-81
2020/12/26 01:13:44;;;;;;;12.20;10.30;;;4.40;93.90;;;;;;5037150;28;20442;-81
2020/12/26 01:16:11;;;;;;;16.97;12.90;;;4.30;93.90;;;;;;5037297;28;20494;-81
2020/12/26 01:18:37;;;;;;;13.10;11.20;;;4.20;93.90;;;;;;5037409;28;20461;-81
2020/12/26 01:21:04;;;;;;;16.97;11.23;;;4.20;94.10;;;;;;5037693;28;20449;-81
2020/12/26 01:23:31;;;;;;;14.60;11.53;;;4.20;94.20;;;;;;5037316;28;20916;-81
2020/12/26 01:25:58;;;;;;;12.93;11.17;;;4.10;94.30;;;;;;5037014;28;20971;-81
2020/12/26 01:28:24;;;;;;;14.70;12.17;;;4.10;94.40;;;;;;5037307;28;20465;-81
2020/12/26 01:30:50;;;;;;;15.80;11.80;;;4.00;94.50;;;;;;5037258;28;20452;-81
2020/12/26 01:33:16;;;;;;;22.10;12.43;;;4.00;94.50;;;;;;5037497;28;20454;-81
2020/12/26 01:35:43;;;;;;;18.27;13.90;;;4.00;94.70;;;;;;5037167;28;20461;-80
2020/12/26 01:38:09;;;;;;;15.33;11.03;;;4.00;94.70;;;;;;5037379;28;20445;-81
2020/12/26 01:40:36;;;;;;;15.10;12.13;;;4.00;94.80;;;;;;5037301;28;20442;-80
2020/12/26 01:43:03;;;;;;;16.87;13.43;;;4.00;94.80;;;;;;5036623;28;20439;-80
2020/12/26 01:45:29;;;;;;;13.67;12.13;;;3.90;94.70;;;;;;5036625;28;20481;-81
2020/12/26 01:47:55;;;;;;;19.77;11.47;;;3.90;94.80;;;;;;5036920;28;20468;-80
2020/12/26 01:50:22;;;;;;;16.90;12.93;;;3.90;94.80;;;;;;5036644;28;20464;-81
2020/12/26 01:52:49;;;;;;;16.93;11.80;;;3.90;94.80;;;;;;5036463;28;20467;-81
2020/12/26 01:55:16;;;;;;;17.63;12.27;;;3.90;94.80;;;;;;5037027;28;20499;-81
2020/12/26 01:57:50;;;;;;;18.13;13.30;;;3.90;94.80;;;;;;5038590;28;20535;-81
2020/12/26 02:00:17;;;;;;;16.67;13.20;;;3.90;94.80;;;;;;5038519;28;20446;-81
2020/12/26 02:02:43;;;;;;;15.23;11.60;;;4.00;94.70;;;;;;5037874;28;20449;-81
2020/12/26 02:05:09;;;;;;;18.63;13.33;;;4.00;94.60;;;;;;5041212;28;20516;-81
2020/12/26 02:07:36;;;;;;;17.47;13.57;;;4.10;94.60;;;;;;5041343;28;20441;-80
2020/12/26 02:10:02;;;;;;;14.37;12.90;;;4.00;94.50;;;;;;5040835;28;20783;-80
2020/12/26 02:12:30;;;;;;;17.43;12.60;;;4.10;94.60;;;;;;5041061;28;20450;-81
2020/12/26 02:14:57;;;;;;;17.33;13.17;;;4.10;94.60;;;;;;5040025;28;20486;-80
2020/12/26 02:17:27;;;;;;;17.70;14.63;;;4.20;94.60;;;;;;5040164;28;20474;-81
2020/12/26 02:19:53;;;;;;;18.07;13.70;;;4.20;94.60;;;;;;5039782;28;20447;-81
2020/12/26 02:22:19;;;;;;;17.07;13.77;;;4.20;94.60;;;;;;5040254;28;20533;-80
2020/12/26 02:24:47;;;;;;;20.40;13.00;;;4.30;94.40;;;;;;5040544;28;20458;-81
2020/12/26 02:27:13;;;;;;;15.50;14.00;;;4.30;94.30;;;;;;5039006;28;20438;-80
2020/12/26 02:29:39;;;;;;;23.13;14.40;;;4.30;94.30;;;;;;5036409;28;20454;-80
2020/12/26 02:32:05;;;;;;;21.57;15.30;;;4.30;94.20;;;;;;5036123;28;20446;-80
2020/12/26 02:34:32;;;;;;;16.23;14.47;;;4.30;94.10;;;;;;5036142;28;20446;-79
2020/12/26 02:36:58;;;;;;;16.00;14.30;;;4.40;94.10;;;;;;5036068;28;20889;-79
2020/12/26 02:39:24;;;;;;;16.70;14.20;;;4.30;94.10;;;;;;5036160;28;20446;-79
2020/12/26 02:41:51;;;;;;;18.50;14.23;;;4.30;94.00;;;;;;5036111;28;20809;-79
2020/12/26 02:44:18;;;;;;;15.20;12.97;;;4.30;94.00;;;;;;5036164;28;20446;-80
2020/12/26 02:46:49;;;;;;;15.30;13.20;;;4.30;94.00;;;;;;5035890;28;20469;-79
2020/12/26 02:49:16;;;;;;;15.07;13.43;;;4.30;94.10;;;;;;5035609;28;20925;-79
2020/12/26 02:51:42;;;;;;;17.20;14.13;;;4.30;94.10;;;;;;5035721;28;20453;-79
2020/12/26 02:54:11;;;;;;;16.80;12.90;;;4.30;94.10;;;;;;5035912;28;20458;-79
2020/12/26 02:56:38;;;;;;;18.43;13.77;;;4.30;94.20;;;;;;5035394;28;21068;-79
2020/12/26 02:59:05;;;;;;;18.20;12.97;;;4.40;94.20;;;;;;5035855;28;20486;-79
2020/12/26 03:01:32;;;;;;;20.80;14.07;;;4.30;94.40;;;;;;5035635;28;20493;-79
2020/12/26 03:03:58;;;;;;;21.07;12.80;;;4.30;94.00;;;;;;5035297;28;20443;-79
2020/12/26 03:06:24;;;;;;;21.90;14.67;;;4.30;94.10;;;;;;5035602;28;20469;-79
2020/12/26 03:08:50;;;;;;;19.10;14.23;;;4.30;94.20;;;;;;5035211;28;20459;-79
2020/12/26 03:11:16;;;;;;;16.37;12.70;;;4.30;94.20;;;;;;5035432;28;20435;-79
2020/12/26 03:13:43;;;;;;;17.13;12.03;;;4.30;94.20;;;;;;5035491;28;20430;-79
2020/12/26 03:16:10;;;;;;;17.37;13.63;;;4.30;94.20;;;;;;5033843;28;20548;-79
2020/12/26 03:18:36;;;;;;;17.17;12.33;;;4.30;94.20;;;;;;5035280;28;20442;-79
2020/12/26 03:21:02;;;;;;;14.80;12.30;;;4.30;94.50;;;;;;5035271;28;20458;-80
2020/12/26 03:23:28;;;;;;;18.33;12.83;;;4.30;94.50;;;;;;5035191;28;20458;-80
2020/12/26 03:25:54;;;;;;;18.73;12.37;;;4.30;94.10;;;;;;5034765;28;21015;-80
2020/12/26 03:28:20;;;;;;;22.30;13.40;;;4.30;94.20;;;;;;5038034;28;20457;-81
2020/12/26 03:30:47;;;;;;;18.63;12.87;;;4.30;94.20;;;;;;5040756;28;20447;-81
2020/12/26 03:33:14;;;;;;;21.13;12.40;;;4.30;94.30;;;;;;5040711;28;20787;-81
2020/12/26 03:35:40;;;;;;;15.93;13.03;;;4.30;94.20;;;;;;5039974;28;20493;-81
2020/12/26 03:38:06;;;;;;;17.80;11.97;;;4.30;94.30;;;;;;5040526;28;20493;-81
2020/12/26 03:40:32;;;;;;;18.57;12.80;;;4.40;94.30;;;;;;5040169;28;20549;-80
2020/12/26 03:42:58;;;;;;;20.13;12.70;;;4.30;94.30;;;;;;5039450;28;20450;-80
2020/12/26 03:45:25;;;;;;;17.53;13.60;;;4.30;94.30;;;;;;5039471;28;20478;-80
2020/12/26 03:47:51;;;;;;;15.67;12.50;;;4.40;94.40;;;;;;5038601;28;20443;-80
2020/12/26 03:50:18;;;;;;;16.40;12.10;;;4.40;94.40;;;;;;5039359;28;20459;-80
2020/12/26 03:52:44;;;;;;;16.20;12.07;;;4.40;94.50;;;;;;5038796;28;20798;-81
2020/12/26 03:55:10;;;;;;;20.53;13.53;;;4.40;94.60;;;;;;5039624;28;20466;-81
2020/12/26 03:57:36;;;;;;;17.37;13.40;;;4.40;94.70;;;;;;5039254;28;20482;-81
2020/12/26 04:00:05;;;;;;;25.10;13.00;;;4.40;94.80;;;;;;5039428;28;20450;-81
2020/12/26 04:02:31;;;;;;;16.97;13.10;;;4.40;94.90;;;;;;5039652;28;20438;-81
2020/12/26 04:04:57;;;;;;;20.50;13.00;;;4.30;95.00;;;;;;5039988;28;20454;-81
2020/12/26 04:07:24;;;;;;;14.17;12.40;;;4.40;95.00;;;;;;5039557;28;20454;-81
2020/12/26 04:09:50;;;;;;;19.83;14.30;;;4.30;95.10;;;;;;5039395;28;20800;-81
2020/12/26 04:12:17;;;;;;;16.90;14.17;;;4.30;95.10;;;;;;5041135;28;20453;-81
2020/12/26 04:14:43;;;;;;;15.97;14.27;;;4.30;95.20;;;;;;5041394;28;20468;-81
2020/12/26 04:17:09;;;;;;;17.47;13.90;;;4.30;95.20;;;;;;5040778;28;20490;-81
2020/12/26 04:19:35;;;;;;;18.90;15.30;;;4.30;95.30;;;;;;5041911;28;20460;-81
2020/12/26 04:22:01;;;;;;;18.90;14.10;;;4.40;95.40;;;;;;5040728;28;20450;-81
2020/12/26 04:24:28;;;;;;;19.33;15.33;;;4.30;95.30;;;;;;5040782;28;20446;-81
2020/12/26 04:26:55;;;;;;;16.17;12.90;;;4.40;95.40;;;;;;5040899;28;20462;-81
2020/12/26 04:29:22;;;;;;;18.73;14.27;;;4.40;95.40;;;;;;5040513;28;20970;-81
2020/12/26 04:31:48;;;;;;;24.97;15.90;;;4.40;95.40;;;;;;5040514;28;20947;-81
2020/12/26 04:34:15;;;;;;;17.60;14.73;;;4.30;95.40;;;;;;5041034;28;20508;-81
2020/12/26 04:36:41;;;;;;;18.20;16.30;;;4.40;95.40;;;;;;5039639;28;20513;-82
2020/12/26 04:39:07;;;;;;;18.90;14.77;;;4.40;95.40;;;;;;5040129;28;20447;-81
2020/12/26 04:41:34;;;;;;;19.23;15.73;;;4.40;95.20;;;;;;5039989;28;20557;-81
2020/12/26 04:44:01;;;;;;;21.30;14.97;;;4.50;95.20;;;;;;5040076;28;20960;-81
2020/12/26 04:46:28;;;;;;;19.37;17.37;;;4.60;95.10;;;;;;5038454;28;20497;-81
2020/12/26 04:49:03;;;;;;;22.30;16.60;;;4.60;95.10;;;;;;5038051;28;20454;-81
2020/12/26 04:51:33;;;;;;;26.13;16.50;;;4.50;95.00;;;;;;5039059;28;20438;-81
2020/12/26 04:54:08;;;;;;;29.87;17.67;;;4.60;95.10;;;;;;5039046;28;20940;-81
2020/12/26 04:56:41;;;;;;;22.07;18.47;;;4.60;94.90;;;;;;5038702;28;20517;-81
2020/12/26 04:59:08;;;;;;;20.00;17.63;;;4.60;94.80;;;;;;5039656;28;20423;-81
2020/12/26 05:01:37;;;;;;;21.40;17.30;;;4.70;94.90;;;;;;5039058;28;20450;-81
2020/12/26 05:04:04;;;;;;;20.57;18.23;;;4.70;94.80;;;;;;5037529;28;20450;-81
2020/12/26 05:06:31;;;;;;;20.43;16.10;;;4.70;94.70;;;;;;5038340;28;20860;-81
2020/12/26 05:08:57;;;;;;;24.03;16.60;;;4.70;94.70;;;;;;5038132;28;20446;-81
2020/12/26 05:11:23;;;;;;;23.67;17.43;;;4.70;94.80;;;;;;5037918;28;20442;-81
2020/12/26 05:13:50;;;;;;;22.67;18.00;;;4.70;94.80;;;;;;5038179;28;20450;-81
2020/12/26 05:16:17;;;;;;;23.67;19.10;;;4.70;94.90;;;;;;5037472;28;20474;-81
2020/12/26 05:18:43;;;;;;;22.90;16.93;;;4.70;94.90;;;;;;5038019;28;20457;-81
2020/12/26 05:21:09;;;;;;;27.13;18.40;;;4.70;94.90;;;;;;5038145;28;20447;-82
2020/12/26 05:23:36;;;;;;;26.40;19.10;;;4.70;94.90;;;;;;5038449;28;20435;-81
2020/12/26 05:26:02;;;;;;;19.90;16.93;;;4.70;94.90;;;;;;5037998;28;20469;-81
2020/12/26 05:28:33;;;;;;;23.50;18.53;;;4.70;94.80;;;;;;5038168;28;20450;-81
2020/12/26 05:31:07;;;;;;;24.93;19.30;;;4.80;94.70;;;;;;5038021;28;20442;-81
2020/12/26 05:33:34;;;;;;;21.57;18.83;;;4.80;94.60;;;;;;5038198;28;20818;-81
2020/12/26 05:36:04;;;;;;;24.73;18.10;;;4.70;94.60;;;;;;5037436;28;20463;-81
2020/12/26 05:38:30;;;;;;;25.40;19.03;;;4.70;94.60;;;;;;5038413;28;20446;-82
2020/12/26 05:40:58;;;;;;;27.13;19.80;;;4.70;94.70;;;;;;5041916;28;20512;-82
2020/12/26 05:43:26;;;;;;;32.23;20.43;;;4.70;94.70;;;;;;5041484;28;20442;-81
2020/12/26 05:45:53;;;;;;;23.67;18.20;;;4.70;94.70;;;;;;5041050;28;20543;-81
2020/12/26 05:48:22;;;;;;;26.83;20.73;;;4.70;94.70;;;;;;5041449;28;20477;-81
2020/12/26 05:50:50;;;;;;;35.77;18.60;;;4.70;94.70;;;;;;5041729;28;20453;-82
2020/12/26 05:53:17;;;;;;;24.47;19.53;;;4.70;94.60;;;;;;5041210;28;20443;-81
2020/12/26 05:55:45;;;;;;;19.77;17.43;;;4.80;94.60;;;;;;5040547;28;20466;-81
2020/12/26 05:58:12;;;;;;;26.30;18.23;;;4.80;94.50;;;;;;5041048;28;20482;-81
2020/12/26 06:00:40;;;;;;;25.23;18.07;;;4.80;94.30;;;;;;5040711;28;20443;-81
2020/12/26 06:03:23;;;;;;;23.90;19.10;;;4.80;94.20;;;;;;5040976;28;20772;-81
2020/12/26 06:05:51;;;;;;;23.13;18.33;;;4.80;94.10;;;;;;5040677;28;20474;-81
2020/12/26 06:08:18;;;;;;;21.17;17.30;;;4.80;93.90;;;;;;5040673;28;20450;-82
2020/12/26 06:10:52;;;;;;;21.93;18.20;;;4.80;93.90;;;;;;5039903;28;20442;-81
2020/12/26 06:13:19;;;;;;;25.10;16.00;;;4.80;93.90;;;;;;5040561;28;21018;-81
2020/12/26 06:15:50;;;;;;;23.97;16.47;;;4.80;93.70;;;;;;5040264;28;20474;-81
2020/12/26 06:18:18;;;;;;;18.47;16.30;;;4.80;93.60;;;;;;5039854;28;20470;-81
2020/12/26 06:20:45;;;;;;;18.60;16.20;;;4.80;93.70;;;;;;5040240;28;20524;-81
2020/12/26 06:23:19;;;;;;;19.73;16.37;;;4.80;93.80;;;;;;5040187;28;20811;-81
2020/12/26 06:25:46;;;;;;;25.00;15.07;;;4.70;93.80;;;;;;5040420;28;20458;-81
2020/12/26 06:28:23;;;;;;;18.40;14.60;;;4.70;93.80;;;;;;5040150;28;20451;-81
2020/12/26 06:30:51;;;;;;;18.97;13.83;;;4.80;93.80;;;;;;5040078;28;20495;-82
2020/12/26 06:33:17;;;;;;;16.93;14.73;;;4.80;93.80;;;;;;5040350;28;20435;-82
2020/12/26 06:35:45;;;;;;;18.97;14.80;;;4.80;93.60;;;;;;5040389;28;20545;-81
2020/12/26 06:38:13;;;;;;;17.90;14.23;;;4.80;93.60;;;;;;5040908;28;20497;-81
2020/12/26 06:40:50;;;;;;;19.90;14.43;;;4.70;93.50;;;;;;5039822;28;20450;-81
2020/12/26 06:43:51;;;;;;;17.40;15.60;;;4.70;93.60;;;;;;5040180;28;20434;-82
2020/12/26 06:46:39;;;;;;;19.23;14.20;;;4.60;93.60;;;;;;5039116;28;20988;-82
2020/12/26 06:49:05;;;;;;;19.50;13.80;;;4.60;93.70;;;;;;5039367;28;20434;-81
2020/12/26 06:51:34;;;;;;;18.57;14.10;;;4.60;93.70;;;;;;5039964;28;20449;-82
2020/12/26 06:54:02;;;;;;;15.50;13.90;;;4.60;93.70;;;;;;5039442;28;20442;-81
2020/12/26 06:56:47;;;;;;;15.73;13.50;;;4.60;93.80;;;;;;5039705;28;20893;-82
2020/12/26 06:59:15;;;;;;;15.53;13.20;;;4.60;93.70;;;;;;5039312;28;20440;-81
2020/12/26 07:01:43;;;;;;;15.83;12.43;;;4.60;93.70;;;;;;5039572;28;20446;-81
2020/12/26 07:04:16;;;;;;;13.40;12.07;;;4.60;93.60;;;;;;5039214;28;20453;-82
2020/12/26 07:06:45;;;;;;;19.23;12.20;;;4.60;93.70;;;;;;5038850;28;20855;-81
2020/12/26 07:09:13;;;;;;;13.60;11.70;;;4.60;93.70;;;;;;5039317;28;20446;-81
2020/12/26 07:11:47;;;;;;;11.73;10.53;;;4.50;93.80;;;;;;5038978;28;20434;-81
2020/12/26 07:14:29;;;;;;;14.37;10.73;;;4.50;93.80;;;;;;5038646;28;20461;-81
2020/12/26 07:16:56;;;;;;;13.20;10.70;;;4.50;93.80;;;;;;5039284;28;20528;-82
2020/12/26 07:19:30;;;;;;;11.87;10.47;;;4.50;93.80;;;;;;5038389;28;20445;-81
2020/12/26 07:21:59;;;;;;;14.77;10.97;;;4.50;93.70;;;;;;5039069;28;20407;-81
2020/12/26 07:24:32;;;;;;;13.73;10.97;;;4.50;93.60;;;;;;5038701;28;20445;-82
2020/12/26 07:27:13;;;;;;;13.30;11.00;;;4.50;93.60;;;;;;5038768;28;20470;-82
2020/12/26 07:29:49;;;;;;;11.10;10.00;;;4.50;93.50;;;;;;5038912;28;20512;-81
2020/12/26 07:32:42;;;;;;;13.10;9.43;;;4.50;93.50;;;;;;5038617;28;20932;-81
2020/12/26 07:35:25;;;;;;;11.10;10.00;;;4.50;93.50;;;;;;5038512;28;20489;-82
2020/12/26 07:37:58;;;;;;;13.67;11.17;;;4.40;93.50;;;;;;5038163;28;20995;-81
2020/12/26 07:40:25;;;;;;;20.33;10.60;;;4.40;93.50;;;;;;5038544;28;20439;-82
2020/12/26 07:42:52;;;;;;;13.13;10.30;;;4.40;93.60;;;;;;5038423;28;20454;-81
2020/12/26 07:45:20;;;;;;;12.00;10.70;;;4.40;93.60;;;;;;5038160;28;20823;-81
2020/12/26 07:47:47;;;;;;;13.10;9.60;;;4.50;93.60;;;;;;5037834;28;20936;-81
2020/12/26 07:50:15;;;;;;;10.60;9.37;;;4.40;93.50;;;;;;5038086;28;20439;-82
2020/12/26 07:52:46;;;;;;;11.13;9.77;;;4.40;93.50;;;;;;5038104;28;20446;-81
2020/12/26 07:55:13;;;;;;;11.00;9.90;;;4.40;93.50;;;;;;5038166;28;20474;-81
2020/12/26 07:57:40;;;;;;;11.90;9.80;;;4.40;93.50;;;;;;5038353;28;20540;-81
2020/12/26 08:00:06;;;;;;;13.90;10.87;;;4.40;93.60;;;;;;5038421;28;20442;-81
2020/12/26 08:02:32;;;;;;;12.70;10.30;;;4.40;93.70;;;;;;5037346;28;20446;-80
2020/12/26 08:04:58;;;;;;;20.07;10.33;;;4.40;93.70;;;;;;5037511;28;20956;-80
2020/12/26 08:07:31;;;;;;;14.50;10.20;;;4.40;93.60;;;;;;5038757;28;20454;-80
2020/12/26 08:09:58;;;;;;;16.00;10.53;;;4.50;93.60;;;;;;5038484;28;20434;-80
2020/12/26 08:12:25;;;;;;;13.80;10.67;;;4.40;93.40;;;;;;5038849;28;20446;-81
2020/12/26 08:14:58;;;;;;;16.30;11.10;;;4.40;93.50;;;;;;5037285;28;20469;-80
2020/12/26 08:17:25;;;;;;;12.40;11.10;;;4.50;93.40;;;;;;5037403;28;20489;-80
2020/12/26 08:19:58;;;;;;;13.40;10.70;;;4.40;93.30;;;;;;5038136;28;20450;-80
2020/12/26 08:22:25;;;;;;;13.60;11.30;;;4.40;93.40;;;;;;5037656;28;20435;-80
2020/12/26 08:25:04;;;;;;;15.50;12.17;;;4.40;93.30;;;;;;5037327;28;20959;-80
2020/12/26 08:27:32;;;;;;;17.33;12.20;;;4.40;93.30;;;;;;5037798;28;20832;-80
2020/12/26 08:30:01;;;;;;;15.63;11.50;;;4.40;93.40;;;;;;5037095;28;20482;-81
2020/12/26 08:32:33;;;;;;;13.47;10.70;;;4.40;93.30;;;;;;5037446;28;20439;-80
2020/12/26 08:35:02;;;;;;;16.23;11.60;;;4.50;93.30;;;;;;5037639;28;20440;-81
2020/12/26 08:37:32;;;;;;;14.63;11.20;;;4.50;93.20;;;;;;5037134;28;20915;-80
2020/12/26 08:40:00;;;;;;;16.23;12.20;;;4.50;93.10;;;;;;5037861;28;20443;-80
2020/12/26 08:42:28;;;;;;;15.27;10.77;;;4.50;93.10;;;;;;5037622;28;20488;-80
2020/12/26 08:44:55;;;;;;;20.43;11.30;;;4.50;92.90;;;;;;5037638;28;20446;-80
2020/12/26 08:47:28;;;;;;;13.00;10.50;;;4.50;92.90;;;;;;5037183;28;20465;-81
2020/12/26 08:49:55;;;;;;;13.23;11.67;;;4.40;92.90;;;;;;5037129;28;20454;-81
2020/12/26 08:52:24;;;;;;;16.90;11.87;;;4.40;92.90;;;;;;5036037;28;20435;-80
2020/12/26 08:55:04;;;;;;;13.87;9.90;;;4.40;92.70;;;;;;5036878;28;20457;-81
2020/12/26 08:57:31;;;;;;;13.00;9.37;;;4.40;92.80;;;;;;5037293;28;20532;-80
2020/12/26 09:00:16;;;;;;;15.20;10.13;;;4.40;92.40;;;;;;5038854;28;20453;-83
2020/12/26 09:02:47;;;;;;;11.40;9.53;;;4.40;92.30;;;;;;5037581;28;20446;-81
2020/12/26 09:05:21;;;;;;;12.43;8.43;;;4.40;92.10;;;;;;5035708;28;20469;-81
2020/12/26 09:07:47;;;;;;;14.73;9.23;;;4.40;91.90;;;;;;5035237;28;20425;-81
2020/12/26 09:10:13;;;;;;;12.63;9.37;;;4.50;91.70;;;;;;5035272;28;20453;-81
2020/12/26 09:12:39;;;;;;;14.73;8.47;;;4.50;91.90;;;;;;5036263;28;20453;-80
2020/12/26 09:15:05;;;;;;;14.13;10.13;;;4.60;91.60;;;;;;5039162;28;20451;-81
2020/12/26 09:17:33;;;;;;;13.20;8.20;;;4.60;91.30;;;;;;5039280;28;20473;-81
2020/12/26 09:19:59;;;;;;;12.10;8.27;;;4.70;91.10;;;;;;5040978;28;20428;-82
2020/12/26 09:22:29;;;;;;;14.53;9.13;;;4.70;91.10;;;;;;5038969;28;20950;-81
2020/12/26 09:24:55;;;;;;;13.33;8.47;;;4.70;90.70;;;;;;5038724;28;20904;-82
2020/12/26 09:27:23;;;;;;;17.17;8.33;;;4.80;90.90;;;;;;5042651;28;20438;-80
2020/12/26 09:29:54;;;;;;;10.73;6.77;;;4.80;90.80;;;;;;5050496;28;20477;-79
2020/12/26 09:32:20;;;;;;;10.70;7.13;;;4.80;90.80;;;;;;5040915;28;20478;-77
2020/12/26 09:34:47;;;;;;;14.67;7.67;;;4.90;90.70;;;;;;5041461;28;20433;-79
2020/12/26 09:37:13;;;;;;;9.73;7.07;;;4.90;90.70;;;;;;5040224;28;20500;-80
2020/12/26 09:39:39;;;;;;;13.83;7.20;;;4.90;90.90;;;;;;5040550;28;20454;-80
2020/12/26 09:42:06;;;;;;;10.50;6.73;;;5.00;90.90;;;;;;5040349;28;20510;-80
2020/12/26 09:44:32;;;;;;;10.60;7.67;;;5.00;90.30;;;;;;5039608;28;20431;-78
2020/12/26 09:47:00;;;;;;;10.60;6.93;;;5.00;90.10;;;;;;5039420;28;20470;-81
2020/12/26 09:49:27;;;;;;;9.47;6.20;;;5.10;90.40;;;;;;5041009;28;20446;-85
2020/12/26 09:51:54;;;;;;;14.77;6.37;;;5.20;89.80;;;;;;5041389;28;20453;-85
2020/12/26 09:54:20;;;;;;;8.33;5.73;;;5.20;90.00;;;;;;5041390;28;20446;-84
2020/12/26 09:56:46;;;;;;;12.83;6.50;;;5.30;90.00;;;;;;5040966;28;20500;-85
2020/12/26 09:59:12;;;;;;;10.03;6.60;;;5.40;90.10;;;;;;5040775;28;20446;-85
2020/12/26 10:01:39;;;;;;;8.97;5.30;;;5.40;89.90;;;;;;5041835;28;20454;-82
2020/12/26 10:04:06;;;;;;;8.90;5.53;;;5.40;89.50;;;;;;5041844;28;20534;-84
2020/12/26 10:06:32;;;;;;;8.57;6.30;;;5.40;89.40;;;;;;5042356;28;20524;-85
2020/12/26 10:08:59;;;;;;;8.23;5.20;;;5.40;89.00;;;;;;5039440;28;20430;-82
2020/12/26 10:11:25;;;;;;;9.20;5.23;;;5.50;88.70;;;;;;5038749;28;20441;-82
2020/12/26 10:13:51;;;;;;;8.70;4.90;;;5.50;88.70;;;;;;5039857;28;20461;-84
2020/12/26 10:16:18;;;;;;;9.00;4.77;;;5.50;87.80;;;;;;5040307;28;20848;-81
2020/12/26 10:18:45;;;;;;;6.50;4.93;;;5.50;87.10;;;;;;5041625;28;20568;-81
2020/12/26 10:21:14;;;;;;;8.57;5.30;;;5.40;87.60;;;;;;5040140;28;20450;-81
2020/12/26 10:23:41;;;;;;;11.23;5.77;;;5.40;87.40;;;;;;5037900;28;20520;-81
2020/12/26 10:26:08;;;;;;;8.50;5.03;;;5.50;88.20;;;;;;5037399;28;20478;-82
2020/12/26 10:28:35;;;;;;;6.93;4.83;;;5.50;88.60;;;;;;5037747;28;20451;-82
2020/12/26 10:31:01;;;;;;;7.60;4.27;;;5.50;87.60;;;;;;5037960;28;20941;-82
2020/12/26 10:33:27;;;;;;;9.77;5.67;;;5.50;87.20;;;;;;5037920;28;20443;-82
2020/12/26 10:35:54;;;;;;;9.17;5.10;;;5.50;87.40;;;;;;5039363;28;20470;-81
2020/12/26 10:38:20;;;;;;;7.90;4.20;;;5.60;87.10;;;;;;5039600;28;20482;-81
2020/12/26 10:40:47;;;;;;;5.07;4.23;;;5.60;86.80;;;;;;5042199;28;20450;-81
2020/12/26 10:43:14;;;;;;;5.90;4.60;;;5.70;86.70;;;;;;5040930;28;20494;-83
2020/12/26 10:45:41;;;;;;;9.73;4.83;;;5.80;86.60;;;;;;5040669;28;20458;-83
2020/12/26 10:48:07;;;;;;;4.70;4.13;;;5.80;85.30;;;;;;5040546;28;20461;-82
2020/12/26 10:50:33;;;;;;;6.77;4.77;;;5.80;85.00;;;;;;5040154;28;20455;-82
2020/12/26 10:52:59;;;;;;;10.27;5.07;;;5.90;85.70;;;;;;5041434;28;20533;-83
2020/12/26 10:55:25;;;;;;;8.93;5.43;;;6.00;85.00;;;;;;5040382;28;20470;-83
2020/12/26 10:57:53;;;;;;;6.90;4.70;;;6.10;84.60;;;;;;5039559;28;20486;-83
2020/12/26 11:00:20;;;;;;;5.20;3.60;;;6.20;83.90;;;;;;5040671;28;20451;-84
2020/12/26 11:02:46;;;;;;;6.40;4.43;;;6.20;83.40;;;;;;5042253;28;20450;-82
2020/12/26 11:05:13;;;;;;;9.10;4.20;;;6.20;83.80;;;;;;5040703;28;20426;-84
2020/12/26 11:07:39;;;;;;;7.80;4.07;;;6.20;83.20;;;;;;5040074;28;20446;-84
2020/12/26 11:10:05;;;;;;;6.00;4.10;;;6.30;83.10;;;;;;5040360;28;20435;-83
2020/12/26 11:12:31;;;;;;;6.03;4.20;;;6.40;83.40;;;;;;5040842;28;20777;-84
2020/12/26 11:14:59;;;;;;;5.60;3.47;;;6.50;83.20;;;;;;5038774;28;20867;-83
2020/12/26 11:17:26;;;;;;;4.80;3.63;;;6.60;82.80;;;;;;5037991;28;21057;-83
2020/12/26 11:19:52;;;;;;;5.23;3.43;;;6.80;81.90;;;;;;5038333;28;20442;-83
2020/12/26 11:22:18;;;;;;;4.50;3.70;;;6.90;80.50;;;;;;5038882;28;20461;-83
2020/12/26 11:24:44;;;;;;;4.50;3.37;;;7.10;80.80;;;;;;5039720;28;20451;-83
2020/12/26 11:27:10;;;;;;;4.73;3.27;;;7.50;80.10;;;;;;5041487;28;20458;-83
2020/12/26 11:29:37;;;;;;;6.00;3.10;;;7.70;77.00;;;;;;5042020;28;20533;-83
2020/12/26 11:32:03;;;;;;;4.60;3.50;;;8.00;76.20;;;;;;5040294;28;20442;-81
2020/12/26 11:34:30;;;;;;;6.40;3.10;;;8.30;75.60;;;;;;5039049;28;20450;-82
2020/12/26 11:36:56;;;;;;;4.80;3.00;;;8.40;73.50;;;;;;5037177;28;20865;-84
2020/12/26 11:39:23;;;;;;;4.17;2.97;;;8.40;73.80;;;;;;5038078;28;20959;-83
2020/12/26 11:41:49;;;;;;;5.03;3.13;;;8.50;74.10;;;;;;5037952;28;20446;-84
2020/12/26 11:44:15;;;;;;;4.00;3.37;;;8.60;73.60;;;;;;5038106;28;20446;-84
2020/12/26 11:46:41;;;;;;;5.37;2.90;;;8.80;72.30;;;;;;5037466;28;20455;-84
2020/12/26 11:49:07;;;;;;;5.63;3.50;;;8.90;72.40;;;;;;5037696;28;20442;-83
2020/12/26 11:51:34;;;;;;;6.40;3.30;;;9.00;72.00;;;;;;5037572;28;20453;-82
2020/12/26 11:54:01;;;;;;;3.73;2.70;;;9.00;71.30;;;;;;5037938;28;20451;-83
2020/12/26 11:56:28;;;;;;;5.17;3.63;;;9.00;71.70;;;;;;5037496;28;20470;-83
2020/12/26 11:58:54;;;;;;;3.27;2.90;;;9.00;72.00;;;;;;5038109;28;20489;-82
2020/12/26 12:01:22;;;;;;;5.10;3.13;;;8.90;71.80;;;;;;5038521;28;20454;-83
2020/12/26 12:03:48;;;;;;;5.70;3.10;;;8.80;72.40;;;;;;5039313;28;20572;-82
2020/12/26 12:06:18;;;;;;;4.40;3.00;;;8.70;72.40;;;;;;5038788;28;20474;-82
2020/12/26 12:08:47;;;;;;;8.47;3.10;;;8.50;73.30;;;;;;5039641;28;20438;-82
2020/12/26 12:11:17;;;;;;;7.60;3.37;;;8.60;73.60;;;;;;5037859;28;20961;-82
2020/12/26 12:13:43;;;;;;;3.70;2.87;;;8.60;73.50;;;;;;5036563;28;20865;-80
2020/12/26 12:16:12;;;;;;;4.53;3.17;;;8.80;73.90;;;;;;5036361;28;21054;-76
2020/12/26 12:18:38;;;;;;;6.43;3.43;;;9.10;71.60;;;;;;5034637;28;20895;-76
2020/12/26 12:21:04;;;;;;;12.00;4.37;;;9.50;71.10;;;;;;5034842;28;20443;-76
2020/12/26 12:23:31;;;;;;;6.40;3.40;;;9.60;69.90;;;;;;5035216;28;20431;-78
2020/12/26 12:25:58;;;;;;;3.33;3.03;;;9.50;68.70;;;;;;5034807;28;20470;-76
2020/12/26 12:28:24;;;;;;;7.83;4.33;;;9.20;69.60;;;;;;5037290;28;20443;-78
2020/12/26 12:30:50;;;;;;;8.53;3.57;;;9.00;70.40;;;;;;5036960;28;20792;-76
2020/12/26 12:33:16;;;;;;;4.63;3.47;;;8.80;72.20;;;;;;5035978;28;20451;-79
2020/12/26 12:35:42;;;;;;;6.70;3.63;;;8.60;73.80;;;;;;5036588;28;20840;-77
2020/12/26 12:38:08;;;;;;;7.27;3.70;;;8.40;73.80;;;;;;5036229;28;20478;-78
2020/12/26 12:40:35;;;;;;;3.57;3.27;;;8.20;74.50;;;;;;5035254;28;20450;-77
2020/12/26 12:43:02;;;;;;;5.33;2.53;;;8.10;75.30;;;;;;5034261;28;20477;-77
2020/12/26 12:45:28;;;;;;;4.93;3.03;;;7.90;75.50;;;;;;5037271;28;20886;-78